createdAt,value
2023-03-08T00:01:25.203Z,2.58
2023-03-08T00:03:55.818Z,2.41
2023-03-08T00:06:24.636Z,2.53
2023-03-08T00:08:59.155Z,2.68
2023-03-08T00:11:27.653Z,2.71
2023-03-08T00:13:55.596Z,2.78
2023-03-08T00:16:23.020Z,2.50
2023-03-08T00:18:50.226Z,2.58
2023-03-08T00:21:19.330Z,2.40
2023-03-08T00:23:46.991Z,2.61
2023-03-08T00:26:18.586Z,2.55
2023-03-08T00:28:47.094Z,2.54
2023-03-08T00:31:14.857Z,2.42
2023-03-08T00:33:41.818Z,2.52
2023-03-08T00:36:17.183Z,2.55
2023-03-08T00:38:45.117Z,2.69
2023-03-08T00:41:15.307Z,2.42
2023-03-08T00:43:43.398Z,2.55
2023-03-08T00:46:13.456Z,2.66
2023-03-08T00:48:41.008Z,2.64
2023-03-08T00:51:16.152Z,2.62
2023-03-08T00:53:43.443Z,2.56
2023-03-08T00:56:10.773Z,2.38
2023-03-08T00:58:39.963Z,2.39
2023-03-08T01:01:09.464Z,2.66
2023-03-08T01:03:36.614Z,2.31
2023-03-08T01:06:13.637Z,2.30
2023-03-08T01:08:43.190Z,2.42
2023-03-08T01:11:25.024Z,2.42
2023-03-08T01:13:54.214Z,2.49
2023-03-08T01:16:29.646Z,2.52
2023-03-08T01:18:57.433Z,2.71
2023-03-08T01:21:26.284Z,2.47
2023-03-08T01:23:53.226Z,2.31
2023-03-08T01:26:23.701Z,2.53
2023-03-08T01:28:54.369Z,2.68
2023-03-08T01:31:28.119Z,2.64
2023-03-08T01:33:56.513Z,2.60
2023-03-08T01:36:28.288Z,2.60
2023-03-08T01:38:55.819Z,2.46
2023-03-08T01:41:31.931Z,2.49
2023-03-08T01:44:01.627Z,2.49
2023-03-08T01:46:35.721Z,2.52
2023-03-08T01:49:25.066Z,2.33
2023-03-08T01:52:10.279Z,2.58
2023-03-08T01:54:56.375Z,2.42
2023-03-08T01:57:45.637Z,2.47
2023-03-08T02:00:23.444Z,2.39
2023-03-08T02:03:01.502Z,2.13
2023-03-08T02:05:29.735Z,2.00
2023-03-08T02:07:57.040Z,1.98
2023-03-08T02:10:23.978Z,2.25
2023-03-08T02:12:51.043Z,2.21
2023-03-08T02:15:20.772Z,2.32
2023-03-08T02:17:48.193Z,2.14
2023-03-08T02:20:32.083Z,2.18
2023-03-08T02:23:21.001Z,2.15
2023-03-08T02:26:01.674Z,1.89
2023-03-08T02:28:29.840Z,2.22
2023-03-08T02:30:57.931Z,2.16
2023-03-08T02:33:27.742Z,2.32
2023-03-08T02:35:54.898Z,2.34
2023-03-08T02:38:22.127Z,2.50
2023-03-08T02:40:51.605Z,2.42
2023-03-08T02:43:19.667Z,2.48
2023-03-08T02:45:46.880Z,2.69
2023-03-08T02:48:14.659Z,2.52
2023-03-08T02:50:41.986Z,2.71
2023-03-08T02:53:09.651Z,2.81
2023-03-08T02:55:40.000Z,2.85
2023-03-08T02:58:09.187Z,2.69
2023-03-08T03:00:37.151Z,2.75
2023-03-08T03:03:04.383Z,3.10
2023-03-08T03:05:33.568Z,3.11
2023-03-08T03:08:01.433Z,3.24
2023-03-08T03:10:28.592Z,3.27
2023-03-08T03:12:55.451Z,3.29
2023-03-08T03:15:22.500Z,3.03
2023-03-08T03:17:49.458Z,3.08
2023-03-08T03:20:16.676Z,2.98
2023-03-08T03:22:44.938Z,3.23
2023-03-08T03:25:12.094Z,3.26
2023-03-08T03:27:39.662Z,3.45
2023-03-08T03:30:09.273Z,2.98
2023-03-08T03:32:36.639Z,3.23
2023-03-08T03:35:03.874Z,3.03
2023-03-08T03:37:33.817Z,3.00
2023-03-08T03:40:03.495Z,3.36
2023-03-08T03:42:30.435Z,3.17
2023-03-08T03:45:00.303Z,3.32
2023-03-08T03:47:27.424Z,3.21
2023-03-08T03:49:56.842Z,3.17
2023-03-08T03:52:23.818Z,3.19
2023-03-08T03:54:53.272Z,2.99
2023-03-08T03:57:20.804Z,3.42
2023-03-08T03:59:47.915Z,3.35
2023-03-08T04:02:17.349Z,3.17
2023-03-08T04:04:46.764Z,3.51
2023-03-08T04:07:16.284Z,3.62
2023-03-08T04:09:43.152Z,3.77
2023-03-08T04:12:12.128Z,3.42
2023-03-08T04:14:40.343Z,3.36
2023-03-08T04:17:08.252Z,3.52
2023-03-08T04:19:37.709Z,3.68
2023-03-08T04:22:06.992Z,3.81
2023-03-08T04:24:36.186Z,3.76
2023-03-08T04:27:05.907Z,3.59
2023-03-08T04:29:32.809Z,3.54
2023-03-08T04:32:00.321Z,3.40
2023-03-08T04:34:27.856Z,3.53
2023-03-08T04:36:57.385Z,3.06
2023-03-08T04:39:28.253Z,3.17
2023-03-08T04:41:55.137Z,3.14
2023-03-08T04:44:22.207Z,3.27
2023-03-08T04:46:51.470Z,3.00
2023-03-08T04:49:18.434Z,2.91
2023-03-08T04:51:50.068Z,2.86
2023-03-08T04:54:21.638Z,2.94
2023-03-08T04:56:51.612Z,3.17
2023-03-08T04:59:23.134Z,2.97
2023-03-08T05:01:50.368Z,3.34
2023-03-08T05:04:17.365Z,3.65
2023-03-08T05:06:44.783Z,3.66
2023-03-08T05:09:11.665Z,3.83
2023-03-08T05:11:38.654Z,3.22
2023-03-08T05:14:09.338Z,3.24
2023-03-08T05:16:41.643Z,3.06
2023-03-08T05:19:11.011Z,3.12
2023-03-08T05:21:38.025Z,3.64
2023-03-08T05:24:05.477Z,3.83
2023-03-08T05:26:36.161Z,3.60
2023-03-08T05:29:03.975Z,3.83
2023-03-08T05:31:31.096Z,3.35
2023-03-08T05:34:00.671Z,3.41
2023-03-08T05:36:27.767Z,3.61
2023-03-08T05:38:55.509Z,3.65
2023-03-08T05:41:24.890Z,3.36
2023-03-08T05:43:51.957Z,3.31
2023-03-08T05:46:21.808Z,3.08
2023-03-08T05:48:51.482Z,3.04
2023-03-08T05:51:19.383Z,3.39
2023-03-08T05:53:46.927Z,3.68
2023-03-08T05:56:21.328Z,3.36
2023-03-08T05:58:48.625Z,3.58
2023-03-08T06:01:16.898Z,3.68
2023-03-08T06:03:56.416Z,3.79
2023-03-08T06:06:26.504Z,3.85
2023-03-08T06:08:54.005Z,4.06
2023-03-08T06:11:23.900Z,3.73
2023-03-08T06:13:51.263Z,3.58
2023-03-08T06:16:18.471Z,3.14
2023-03-08T06:18:45.418Z,3.29
2023-03-08T06:21:23.053Z,2.93
2023-03-08T06:23:53.176Z,3.37
2023-03-08T06:26:20.153Z,3.65
2023-03-08T06:28:49.807Z,3.82
2023-03-08T06:31:21.381Z,3.76
2023-03-08T06:33:53.335Z,3.64
2023-03-08T06:36:22.087Z,3.34
2023-03-08T06:38:49.989Z,3.56
2023-03-08T06:41:20.040Z,3.45
2023-03-08T06:43:48.029Z,3.65
2023-03-08T06:46:19.388Z,3.67
2023-03-08T06:48:48.356Z,3.67
2023-03-08T06:51:15.672Z,3.85
2023-03-08T06:53:46.690Z,3.68
2023-03-08T06:56:18.907Z,3.45
2023-03-08T06:58:49.102Z,3.41
2023-03-08T07:01:20.535Z,3.53
2023-03-08T07:03:50.289Z,3.67
2023-03-08T07:06:17.333Z,3.52
2023-03-08T07:08:44.392Z,3.82
2023-03-08T07:11:11.754Z,4.16
2023-03-08T07:13:39.041Z,3.83
2023-03-08T07:16:14.483Z,3.81
2023-03-08T07:18:41.679Z,4.01
2023-03-08T07:21:10.437Z,4.20
2023-03-08T07:23:37.487Z,4.10
2023-03-08T07:26:09.606Z,4.32
2023-03-08T07:28:36.952Z,3.93
2023-03-08T07:31:04.383Z,4.53
2023-03-08T07:33:31.463Z,4.88
2023-03-08T07:36:04.084Z,4.81
2023-03-08T07:38:31.329Z,4.72
2023-03-08T07:40:58.223Z,4.62
2023-03-08T07:43:25.372Z,4.05
2023-03-08T07:45:52.214Z,4.35
2023-03-08T07:48:19.249Z,4.59
2023-03-08T07:50:46.284Z,4.43
2023-03-08T07:53:13.325Z,4.78
2023-03-08T07:55:40.238Z,4.94
2023-03-08T07:58:09.826Z,5.04
2023-03-08T08:00:39.834Z,4.42
2023-03-08T08:03:07.013Z,4.65
2023-03-08T08:05:36.536Z,4.93
2023-03-08T08:08:06.167Z,4.95
2023-03-08T08:10:35.400Z,4.78
2023-03-08T08:13:02.336Z,5.24
2023-03-08T08:15:31.868Z,5.57
2023-03-08T08:18:04.415Z,5.53
2023-03-08T08:20:31.487Z,5.24
2023-03-08T08:23:00.605Z,5.38
2023-03-08T08:25:30.623Z,5.23
2023-03-08T08:28:03.157Z,5.45
2023-03-08T08:30:30.394Z,5.43
2023-03-08T08:32:57.640Z,4.72
2023-03-08T08:35:37.436Z,4.81
2023-03-08T08:38:10.319Z,4.87
2023-03-08T08:40:37.525Z,4.79
2023-03-08T08:43:04.512Z,4.38
2023-03-08T08:45:31.531Z,4.51
2023-03-08T08:48:03.580Z,4.79
2023-03-08T08:50:30.506Z,5.19
2023-03-08T08:53:00.212Z,5.37
2023-03-08T08:55:27.374Z,5.08
2023-03-08T08:57:54.294Z,4.72
2023-03-08T09:00:21.540Z,4.93
2023-03-08T09:02:50.819Z,5.02
2023-03-08T09:05:17.940Z,5.07
2023-03-08T09:07:44.806Z,5.00
2023-03-08T09:10:12.523Z,4.64
2023-03-08T09:12:39.702Z,4.61
2023-03-08T09:15:11.688Z,4.73
2023-03-08T09:17:39.674Z,5.00
2023-03-08T09:20:11.005Z,4.85
2023-03-08T09:22:38.870Z,4.54
2023-03-08T09:25:08.723Z,4.91
2023-03-08T09:27:37.242Z,4.79
2023-03-08T09:30:12.659Z,5.15
2023-03-08T09:32:39.972Z,5.66
2023-03-08T09:35:10.523Z,5.99
2023-03-08T09:37:38.252Z,5.58
2023-03-08T09:40:09.649Z,5.06
2023-03-08T09:42:39.421Z,5.15
2023-03-08T09:45:10.355Z,4.98
2023-03-08T09:48:16.937Z,5.29
2023-03-08T09:50:53.827Z,5.82
2023-03-08T09:53:28.877Z,5.61
2023-03-08T09:56:29.606Z,6.27
2023-03-08T09:59:09.626Z,6.62
2023-03-08T10:01:45.553Z,7.09
2023-03-08T10:04:15.522Z,7.08
2023-03-08T10:07:06.017Z,7.00
2023-03-08T10:09:37.262Z,7.30
2023-03-08T10:12:33.047Z,7.53
2023-03-08T10:15:18.413Z,7.82
2023-03-08T10:17:57.963Z,7.58
2023-03-08T10:20:29.968Z,7.84
2023-03-08T10:23:22.268Z,7.22
2023-03-08T10:25:50.888Z,7.46
2023-03-08T10:28:26.511Z,8.38
2023-03-08T10:31:00.905Z,9.30
2023-03-08T10:33:35.741Z,9.22
2023-03-08T10:36:12.668Z,8.93
2023-03-08T10:38:39.705Z,9.26
2023-03-08T10:41:15.820Z,9.72
2023-03-08T10:43:48.176Z,10.00
2023-03-08T10:46:30.293Z,9.58
2023-03-08T10:49:15.055Z,9.73
2023-03-08T10:51:59.715Z,9.68
2023-03-08T10:54:28.416Z,9.98
2023-03-08T10:57:01.192Z,9.67
2023-03-08T10:59:35.148Z,9.47
2023-03-08T11:02:18.555Z,8.86
2023-03-08T11:05:01.902Z,8.76
2023-03-08T11:07:33.441Z,8.61
2023-03-08T11:10:14.690Z,8.01
2023-03-08T11:12:42.353Z,7.55
2023-03-08T11:15:22.440Z,7.39
2023-03-08T11:18:39.600Z,7.67
2023-03-08T11:21:36.606Z,8.41
2023-03-08T11:24:18.588Z,9.82
2023-03-08T11:27:17.492Z,10.95
2023-03-08T11:29:47.082Z,11.48
2023-03-08T11:32:41.218Z,12.23
2023-03-08T11:35:47.748Z,12.46
2023-03-08T11:38:44.511Z,13.90
2023-03-08T11:41:25.457Z,13.71
2023-03-08T11:44:27.205Z,16.37
2023-03-08T11:47:21.856Z,17.04
2023-03-08T11:49:59.229Z,18.78
2023-03-08T11:53:02.156Z,17.71
2023-03-08T11:56:09.103Z,15.12
2023-03-08T11:58:48.915Z,13.61
2023-03-08T12:01:25.243Z,13.11
2023-03-08T12:03:59.104Z,12.58
2023-03-08T12:06:42.133Z,13.35
2023-03-08T12:09:56.393Z,14.51
2023-03-08T12:12:56.700Z,16.38
2023-03-08T12:15:54.592Z,17.04
2023-03-08T12:18:39.590Z,15.78
2023-03-08T12:21:15.115Z,14.23
2023-03-08T12:24:16.170Z,15.40
2023-03-08T12:26:51.959Z,15.51
2023-03-08T12:29:24.503Z,14.62
2023-03-08T12:31:55.379Z,12.54
2023-03-08T12:34:29.083Z,11.58
2023-03-08T12:36:56.540Z,10.78
2023-03-08T12:39:36.605Z,10.39
2023-03-08T12:42:09.349Z,10.22
2023-03-08T12:44:44.848Z,10.10
2023-03-08T12:47:17.406Z,9.98
2023-03-08T12:49:58.028Z,9.24
2023-03-08T12:52:34.966Z,9.32
2023-03-08T12:55:16.961Z,9.55
2023-03-08T12:57:54.768Z,9.13
2023-03-08T13:00:32.138Z,9.79
2023-03-08T13:03:06.360Z,10.13
2023-03-08T13:05:38.634Z,9.60
2023-03-08T13:08:16.758Z,9.21
2023-03-08T13:10:52.659Z,9.41
2023-03-08T13:13:52.743Z,9.07
2023-03-08T13:16:32.473Z,9.47
2023-03-08T13:19:18.331Z,10.13
2023-03-08T13:21:54.217Z,9.55
2023-03-08T13:24:56.800Z,9.60
2023-03-08T13:27:41.729Z,10.15
2023-03-08T13:30:43.867Z,10.74
2023-03-08T13:33:27.355Z,11.09
2023-03-08T13:36:04.570Z,11.58
2023-03-08T13:38:36.519Z,11.24
2023-03-08T13:41:05.552Z,10.79
2023-03-08T13:43:34.673Z,10.72
2023-03-08T13:46:16.771Z,10.76
2023-03-08T13:48:46.350Z,10.77
2023-03-08T13:51:19.563Z,10.20
2023-03-08T13:53:48.998Z,10.47
2023-03-08T13:56:28.282Z,9.82
2023-03-08T13:58:59.684Z,9.66
2023-03-08T14:01:31.592Z,9.49
2023-03-08T14:03:59.165Z,9.52
2023-03-08T14:06:33.779Z,9.66
2023-03-08T14:09:03.429Z,9.73
2023-03-08T14:11:34.430Z,9.70
2023-03-08T14:14:07.269Z,9.47
2023-03-08T14:16:37.688Z,8.92
2023-03-08T14:19:30.143Z,8.76
2023-03-08T14:22:04.716Z,8.84
2023-03-08T14:24:36.743Z,8.94
2023-03-08T14:27:16.144Z,8.97
2023-03-08T14:29:45.325Z,8.97
2023-03-08T14:32:12.703Z,8.96
2023-03-08T14:34:41.200Z,8.51
2023-03-08T14:37:20.117Z,8.78
2023-03-08T14:39:52.769Z,8.52
2023-03-08T14:42:47.018Z,8.42
2023-03-08T14:45:39.053Z,7.94
2023-03-08T14:48:28.709Z,7.77
2023-03-08T14:51:44.780Z,7.75
2023-03-08T14:54:34.174Z,7.99
2023-03-08T14:57:24.982Z,8.14
2023-03-08T14:59:58.016Z,7.92
2023-03-08T15:02:24.948Z,7.80
2023-03-08T15:04:54.330Z,7.74
2023-03-08T15:07:23.641Z,7.82
2023-03-08T15:09:51.787Z,7.57
2023-03-08T15:12:18.732Z,7.14
2023-03-08T15:14:48.088Z,7.33
2023-03-08T15:17:15.174Z,7.52
2023-03-08T15:19:42.305Z,7.58
2023-03-08T15:22:13.898Z,7.56
2023-03-08T15:24:40.895Z,7.49
2023-03-08T15:27:13.773Z,7.74
2023-03-08T15:29:46.167Z,7.41
2023-03-08T15:32:14.231Z,6.86
2023-03-08T15:34:44.106Z,6.91
2023-03-08T15:37:14.923Z,7.32
2023-03-08T15:39:44.054Z,7.70
2023-03-08T15:42:10.990Z,7.62
2023-03-08T15:44:40.765Z,7.65
2023-03-08T15:47:09.921Z,7.37
2023-03-08T15:49:36.780Z,7.43
2023-03-08T15:52:03.829Z,7.01
2023-03-08T15:54:31.833Z,7.39
2023-03-08T15:56:59.345Z,7.51
2023-03-08T15:59:26.255Z,7.24
2023-03-08T16:01:53.207Z,7.11
2023-03-08T16:04:20.088Z,6.88
2023-03-08T16:06:46.959Z,6.99
2023-03-08T16:09:13.887Z,7.13
2023-03-08T16:11:43.010Z,7.15
2023-03-08T16:14:10.220Z,7.35
2023-03-08T16:16:45.609Z,7.41
2023-03-08T16:19:13.220Z,7.04
2023-03-08T16:21:43.051Z,7.04
2023-03-08T16:24:13.691Z,6.73
2023-03-08T16:26:40.581Z,6.54
2023-03-08T16:29:12.046Z,6.64
2023-03-08T16:31:41.135Z,6.78
2023-03-08T16:34:08.154Z,6.59
2023-03-08T16:36:37.765Z,6.81
2023-03-08T16:39:08.705Z,6.93
2023-03-08T16:41:40.068Z,6.69
2023-03-08T16:44:35.174Z,6.56
2023-03-08T16:47:02.300Z,6.59
2023-03-08T16:49:29.266Z,6.72
2023-03-08T16:51:59.043Z,6.76
2023-03-08T16:54:28.645Z,6.79
2023-03-08T16:56:55.609Z,7.04
2023-03-08T16:59:22.544Z,7.13
2023-03-08T17:01:50.062Z,7.09
2023-03-08T17:04:19.545Z,7.10
2023-03-08T17:06:49.684Z,7.15
2023-03-08T17:09:16.651Z,7.35
2023-03-08T17:11:45.555Z,7.39
2023-03-08T17:14:14.627Z,7.27
2023-03-08T17:16:43.860Z,7.19
2023-03-08T17:19:13.340Z,7.12
2023-03-08T17:21:40.301Z,6.99
2023-03-08T17:24:13.124Z,7.02
2023-03-08T17:26:47.451Z,6.84
2023-03-08T17:29:15.074Z,7.01
2023-03-08T17:31:44.796Z,6.80
2023-03-08T17:34:11.741Z,6.60
2023-03-08T17:36:39.013Z,6.51
2023-03-08T17:39:06.167Z,6.59
2023-03-08T17:41:34.314Z,6.88
2023-03-08T17:44:06.301Z,6.79
2023-03-08T17:46:35.720Z,6.87
2023-03-08T17:49:02.910Z,6.96
2023-03-08T17:51:33.000Z,6.81
2023-03-08T17:54:01.251Z,6.74
2023-03-08T17:56:32.270Z,6.75
2023-03-08T17:59:01.317Z,6.64
2023-03-08T18:01:32.546Z,6.64
2023-03-08T18:04:02.628Z,6.54
2023-03-08T18:06:39.428Z,6.54
2023-03-08T18:09:15.901Z,6.82
2023-03-08T18:11:45.442Z,6.57
2023-03-08T18:14:14.587Z,6.57
2023-03-08T18:16:45.030Z,6.58
2023-03-08T18:19:12.417Z,6.39
2023-03-08T18:21:41.266Z,6.48
2023-03-08T18:24:11.926Z,6.43
2023-03-08T18:26:38.849Z,6.43
2023-03-08T18:29:08.114Z,6.38
2023-03-08T18:31:40.237Z,6.42
2023-03-08T18:34:10.604Z,6.22
2023-03-08T18:36:40.319Z,6.27
2023-03-08T18:39:12.205Z,6.46
2023-03-08T18:41:44.043Z,6.35
2023-03-08T18:44:13.355Z,6.20
2023-03-08T18:46:40.277Z,6.18
2023-03-08T18:49:12.383Z,6.29
2023-03-08T18:51:41.607Z,6.10
2023-03-08T18:54:13.657Z,6.23
2023-03-08T18:56:43.217Z,6.13
2023-03-08T18:59:13.641Z,6.04
2023-03-08T19:01:40.809Z,6.09
2023-03-08T19:04:12.784Z,5.91
2023-03-08T19:06:41.796Z,5.71
2023-03-08T19:09:11.549Z,5.64
2023-03-08T19:11:39.146Z,5.56
2023-03-08T19:14:07.267Z,5.49
2023-03-08T19:16:36.813Z,5.53
2023-03-08T19:19:11.359Z,5.19
2023-03-08T19:21:42.004Z,5.46
2023-03-08T19:24:12.249Z,5.56
2023-03-08T19:26:42.896Z,5.60
2023-03-08T19:29:26.661Z,5.33
2023-03-08T19:32:03.617Z,5.36
2023-03-08T19:34:40.330Z,5.11
2023-03-08T19:37:09.489Z,5.17
2023-03-08T19:39:40.479Z,5.11
2023-03-08T19:42:15.535Z,5.00
2023-03-08T19:44:48.190Z,5.05
2023-03-08T19:47:16.632Z,5.23
2023-03-08T19:49:44.273Z,5.23
2023-03-08T19:52:15.563Z,4.84
2023-03-08T19:54:46.195Z,4.53
2023-03-08T19:57:13.463Z,4.60
2023-03-08T19:59:42.945Z,4.84
2023-03-08T20:02:13.179Z,4.93
2023-03-08T20:04:40.841Z,5.13
2023-03-08T20:07:12.787Z,5.19
2023-03-08T20:09:46.930Z,5.09
2023-03-08T20:12:16.060Z,5.07
2023-03-08T20:14:45.240Z,5.18
2023-03-08T20:17:14.392Z,5.35
2023-03-08T20:19:41.514Z,5.21
2023-03-08T20:22:12.901Z,5.07
2023-03-08T20:24:39.855Z,4.79
2023-03-08T20:27:06.763Z,5.02
2023-03-08T20:29:34.461Z,5.20
2023-03-08T20:32:01.762Z,5.22
2023-03-08T20:34:32.306Z,5.34
2023-03-08T20:36:59.218Z,5.23
2023-03-08T20:39:28.278Z,5.13
2023-03-08T20:41:56.063Z,5.21
2023-03-08T20:44:23.001Z,5.12
2023-03-08T20:46:52.158Z,5.07
2023-03-08T20:49:19.294Z,5.30
2023-03-08T20:51:47.883Z,5.19
2023-03-08T20:54:14.922Z,5.29
2023-03-08T20:56:42.026Z,5.23
2023-03-08T20:59:08.975Z,5.30
2023-03-08T21:01:39.655Z,5.32
2023-03-08T21:04:08.662Z,5.36
2023-03-08T21:06:35.827Z,5.46
2023-03-08T21:09:05.409Z,5.62
2023-03-08T21:11:35.545Z,5.73
2023-03-08T21:14:02.541Z,5.67
2023-03-08T21:16:30.642Z,5.46
2023-03-08T21:19:02.250Z,5.19
2023-03-08T21:21:41.251Z,5.20
2023-03-08T21:24:18.546Z,5.32
2023-03-08T21:26:46.235Z,5.10
2023-03-08T21:29:17.438Z,4.89
2023-03-08T21:31:51.433Z,4.85
2023-03-08T21:34:19.500Z,4.53
2023-03-08T21:36:46.852Z,4.53
2023-03-08T21:39:14.224Z,4.61
2023-03-08T21:41:44.910Z,4.77
2023-03-08T21:44:20.843Z,4.83
2023-03-08T21:46:51.971Z,4.88
2023-03-08T21:49:25.155Z,4.87
2023-03-08T21:51:57.117Z,4.93
2023-03-08T21:54:26.533Z,4.82
2023-03-08T21:56:58.522Z,5.05
2023-03-08T21:59:28.841Z,5.02
2023-03-08T22:01:59.505Z,4.96
2023-03-08T22:04:27.811Z,5.01
2023-03-08T22:06:58.054Z,4.94
2023-03-08T22:09:28.103Z,5.02
2023-03-08T22:11:58.480Z,4.75
2023-03-08T22:14:28.729Z,4.61
2023-03-08T22:16:58.097Z,4.71
2023-03-08T22:19:25.138Z,4.80
2023-03-08T22:21:52.283Z,4.80
2023-03-08T22:24:19.201Z,4.73
2023-03-08T22:26:46.041Z,4.48
2023-03-08T22:29:15.378Z,4.65
2023-03-08T22:31:44.879Z,4.88
2023-03-08T22:34:11.855Z,4.84
2023-03-08T22:36:43.410Z,4.93
2023-03-08T22:39:11.225Z,4.89
2023-03-08T22:41:38.174Z,5.03
2023-03-08T22:44:11.547Z,4.95
2023-03-08T22:46:38.489Z,4.98
2023-03-08T22:49:11.531Z,4.97
2023-03-08T22:51:41.488Z,5.09
2023-03-08T22:54:15.535Z,5.11
2023-03-08T22:56:42.501Z,5.15
2023-03-08T22:59:09.443Z,4.97
2023-03-08T23:01:36.785Z,5.04
2023-03-08T23:04:05.929Z,5.03
2023-03-08T23:06:35.535Z,5.07
2023-03-08T23:09:07.521Z,4.89
2023-03-08T23:11:38.121Z,4.97
2023-03-08T23:14:06.392Z,4.85
2023-03-08T23:16:34.022Z,4.83
2023-03-08T23:19:03.558Z,4.92
2023-03-08T23:21:35.704Z,5.01
2023-03-08T23:24:02.557Z,5.04
2023-03-08T23:26:34.421Z,4.85
2023-03-08T23:29:04.946Z,4.73
2023-03-08T23:31:38.770Z,4.97
2023-03-08T23:34:06.302Z,5.00
2023-03-08T23:36:34.360Z,4.96
2023-03-08T23:39:02.611Z,4.99
2023-03-08T23:41:32.660Z,4.95
2023-03-08T23:44:02.713Z,4.81
2023-03-08T23:46:30.591Z,4.58
2023-03-08T23:49:01.626Z,4.70
2023-03-08T23:51:32.944Z,4.65
2023-03-08T23:54:02.213Z,4.65
2023-03-08T23:56:38.139Z,4.63
2023-03-08T23:59:21.877Z,4.84
